sensor_id;sensor_type;location;lat;lon;timestamp;P1;P4;P2;P0;N10;N4;N25;N1;N05;TS
18724;SPS30;66230;52.130;5.584;2023-01-15T00:01:02;4.43;4.01;3.19;2.08;16.71;16.67;16.48;15.41;11.81;0.80
18724;SPS30;66230;52.130;5.584;2023-01-15T00:03:30;4.45;3.98;3.09;1.89;15.21;15.17;14.96;13.80;10.25;0.83
18724;SPS30;66230;52.130;5.584;2023-01-15T00:06:01;4.85;4.31;3.26;1.88;15.12;15.07;14.82;13.47;9.66;0.87
18724;SPS30;66230;52.130;5.584;2023-01-15T00:08:28;5.54;4.90;3.65;2.02;16.28;16.22;15.93;14.33;10.03;0.90
18724;SPS30;66230;52.130;5.584;2023-01-15T00:10:56;6.03;5.33;3.95;2.16;17.42;17.36;17.03;15.28;10.60;0.92
18724;SPS30;66230;52.130;5.584;2023-01-15T00:13:23;5.29;4.70;3.53;2.01;16.16;16.10;15.83;14.34;10.20;0.88
18724;SPS30;66230;52.130;5.584;2023-01-15T00:15:49;5.49;4.88;3.70;2.15;17.30;17.25;16.96;15.45;11.13;0.87
18724;SPS30;66230;52.130;5.584;2023-01-15T00:18:16;4.36;3.90;3.00;1.80;14.49;14.45;14.23;13.07;9.61;0.84
18724;SPS30;66230;52.130;5.584;2023-01-15T00:20:42;5.00;4.47;3.44;2.08;16.69;16.65;16.40;15.08;11.11;0.84
18724;SPS30;66230;52.130;5.584;2023-01-15T00:23:09;4.81;4.31;3.32;2.02;16.26;16.22;15.98;14.72;10.89;0.83
18724;SPS30;66230;52.130;5.584;2023-01-15T00:25:57;5.26;4.73;3.69;2.30;18.50;18.45;18.20;16.87;12.64;0.81
18724;SPS30;66230;52.130;5.584;2023-01-15T00:28:41;4.56;4.10;3.21;2.01;16.14;16.10;15.89;14.73;11.06;0.80
18724;SPS30;66230;52.130;5.584;2023-01-15T00:31:08;4.40;3.96;3.09;1.94;15.58;15.55;15.34;14.22;10.69;0.82
18724;SPS30;66230;52.130;5.584;2023-01-15T00:33:35;4.59;4.11;3.18;1.94;15.55;15.51;15.29;14.08;10.42;0.85
18724;SPS30;66230;52.130;5.584;2023-01-15T00:36:01;4.74;4.24;3.26;1.97;15.81;15.76;15.53;14.28;10.51;0.84
18724;SPS30;66230;52.130;5.584;2023-01-15T00:38:28;5.04;4.50;3.43;2.03;16.32;16.27;16.02;14.65;10.67;0.85
18724;SPS30;66230;52.130;5.584;2023-01-15T00:40:55;5.38;4.80;3.66;2.17;17.43;17.38;17.11;15.65;11.40;0.84
18724;SPS30;66230;52.130;5.584;2023-01-15T00:43:23;5.44;4.84;3.67;2.13;17.15;17.10;16.82;15.32;11.04;0.86
18724;SPS30;66230;52.130;5.584;2023-01-15T00:45:52;5.76;5.11;3.84;2.18;17.56;17.51;17.20;15.58;11.08;0.89
18724;SPS30;66230;52.130;5.584;2023-01-15T00:48:18;6.40;5.69;4.28;2.45;19.74;19.68;19.34;17.55;12.53;0.89
18724;SPS30;66230;52.130;5.584;2023-01-15T00:50:45;6.17;5.46;4.07;2.27;18.25;18.18;17.85;16.08;11.28;0.92
18724;SPS30;66230;52.130;5.584;2023-01-15T00:53:12;5.60;4.95;3.68;2.03;16.38;16.32;16.02;14.41;10.06;0.91
18724;SPS30;66230;52.130;5.584;2023-01-15T00:55:38;5.97;5.28;3.92;2.17;17.47;17.41;17.09;15.37;10.73;0.90
18724;SPS30;66230;52.130;5.584;2023-01-15T00:58:05;6.10;5.38;3.98;2.17;17.45;17.39;17.05;15.27;10.55;0.93
18724;SPS30;66230;52.130;5.584;2023-01-15T01:00:33;6.24;5.50;4.04;2.17;17.45;17.39;17.04;15.20;10.38;0.95
18724;SPS30;66230;52.130;5.584;2023-01-15T01:03:00;6.33;5.60;4.18;2.33;18.72;18.66;18.32;16.51;11.58;0.90
18724;SPS30;66230;52.130;5.584;2023-01-15T01:05:26;6.67;5.89;4.37;2.39;19.24;19.17;18.81;16.87;11.70;0.93
18724;SPS30;66230;52.130;5.584;2023-01-15T01:07:53;6.32;5.58;4.13;2.26;18.17;18.11;17.76;15.92;11.03;0.93
18724;SPS30;66230;52.130;5.584;2023-01-15T01:10:19;6.85;6.04;4.44;2.39;19.23;19.16;18.78;16.76;11.47;0.94
18724;SPS30;66230;52.130;5.584;2023-01-15T01:12:46;7.06;6.19;4.50;2.32;18.72;18.64;18.24;16.09;10.70;0.96
18724;SPS30;66230;52.130;5.584;2023-01-15T01:15:16;6.79;5.97;4.37;2.31;18.59;18.52;18.14;16.11;10.90;0.93
18724;SPS30;66230;52.130;5.584;2023-01-15T01:17:44;7.91;6.93;5.01;2.55;20.57;20.49;20.03;17.60;11.57;0.97
18724;SPS30;66230;52.130;5.584;2023-01-15T01:20:11;6.91;6.04;4.34;2.18;17.55;17.48;17.07;14.93;9.68;0.99
18724;SPS30;66230;52.130;5.584;2023-01-15T01:22:38;7.75;6.75;4.80;2.32;18.73;18.65;18.19;15.73;9.88;1.01
18724;SPS30;66230;52.130;5.584;2023-01-15T01:25:05;7.42;6.48;4.66;2.32;18.69;18.61;18.18;15.86;10.23;0.98
18724;SPS30;66230;52.130;5.584;2023-01-15T01:27:32;6.58;5.76;4.15;2.09;16.85;16.78;16.40;14.37;9.36;0.98
18724;SPS30;66230;52.130;5.584;2023-01-15T01:29:58;7.43;6.48;4.63;2.27;18.32;18.24;17.80;15.46;9.84;1.00
18724;SPS30;66230;52.130;5.584;2023-01-15T01:32:25;7.23;6.31;4.52;2.23;17.97;17.89;17.47;15.20;9.73;0.99
18724;SPS30;66230;52.130;5.584;2023-01-15T01:34:53;7.74;6.75;4.81;2.35;18.95;18.87;18.41;15.97;10.12;1.00
18724;SPS30;66230;52.130;5.584;2023-01-15T01:37:20;6.59;5.77;4.15;2.09;16.84;16.77;16.38;14.34;9.33;0.97
18724;SPS30;66230;52.130;5.584;2023-01-15T01:39:46;7.49;6.56;4.75;2.42;19.52;19.44;19.01;16.72;11.01;0.96
18724;SPS30;66230;52.130;5.584;2023-01-15T01:42:13;7.59;6.65;4.82;2.48;19.97;19.89;19.45;17.13;11.34;0.96
18724;SPS30;66230;52.130;5.584;2023-01-15T01:44:57;6.55;5.74;4.16;2.13;17.14;17.07;16.70;14.69;9.70;0.96
18724;SPS30;66230;52.130;5.584;2023-01-15T01:47:26;6.73;5.88;4.22;2.10;16.93;16.86;16.46;14.36;9.25;0.98
18724;SPS30;66230;52.130;5.584;2023-01-15T01:49:57;7.64;6.66;4.74;2.30;18.53;18.45;17.99;15.57;9.81;1.00
18724;SPS30;66230;52.130;5.584;2023-01-15T01:52:26;6.89;6.01;4.27;2.07;16.70;16.63;16.22;14.03;8.83;1.00
18724;SPS30;66230;52.130;5.584;2023-01-15T01:54:56;7.00;6.12;4.40;2.20;17.72;17.64;17.23;15.06;9.74;0.99
18724;SPS30;66230;52.130;5.584;2023-01-15T01:57:24;6.53;5.71;4.09;2.03;16.41;16.34;15.96;13.92;8.96;0.99
18724;SPS30;66230;52.130;5.584;2023-01-15T01:59:51;6.96;6.10;4.40;2.23;18.01;17.94;17.53;15.39;10.08;0.97
18724;SPS30;66230;52.130;5.584;2023-01-15T02:02:19;6.54;5.73;4.15;2.13;17.18;17.11;16.74;14.74;9.75;0.97
18724;SPS30;66230;52.130;5.584;2023-01-15T02:04:48;6.27;5.48;3.95;1.98;15.97;15.90;15.54;13.59;8.83;0.99
18724;SPS30;66230;52.130;5.584;2023-01-15T02:07:17;6.64;5.81;4.19;2.12;17.12;17.05;16.67;14.62;9.56;0.99
18724;SPS30;66230;52.130;5.584;2023-01-15T02:09:44;6.02;5.26;3.79;1.90;15.32;15.26;14.90;13.04;8.46;0.98
18724;SPS30;66230;52.130;5.584;2023-01-15T02:12:13;6.73;5.88;4.23;2.11;17.01;16.94;16.55;14.45;9.34;0.98
18724;SPS30;66230;52.130;5.584;2023-01-15T02:14:48;6.27;5.49;3.96;1.99;16.08;16.02;15.65;13.72;8.94;0.98
18724;SPS30;66230;52.130;5.584;2023-01-15T02:17:19;6.53;5.71;4.10;2.04;16.49;16.42;16.04;14.00;9.04;0.99
18724;SPS30;66230;52.130;5.584;2023-01-15T02:19:52;6.59;5.77;4.17;2.11;17.04;16.97;16.59;14.55;9.53;0.97
18724;SPS30;66230;52.130;5.584;2023-01-15T02:22:28;6.32;5.53;3.99;2.01;16.24;16.17;15.81;13.86;9.05;0.98
18724;SPS30;66230;52.130;5.584;2023-01-15T02:25:04;6.81;5.93;4.22;2.04;16.43;16.36;15.95;13.79;8.66;1.02
18724;SPS30;66230;52.130;5.584;2023-01-15T02:27:36;7.19;6.25;4.40;2.05;16.58;16.50;16.06;13.73;8.34;1.04
18724;SPS30;66230;52.130;5.584;2023-01-15T02:30:09;7.35;6.39;4.50;2.10;16.95;16.87;16.42;14.04;8.53;1.04
18724;SPS30;66230;52.130;5.584;2023-01-15T02:32:52;7.03;6.11;4.32;2.04;16.49;16.41;15.99;13.73;8.45;1.02
18724;SPS30;66230;52.130;5.584;2023-01-15T02:38:20;7.13;6.23;4.47;2.22;17.90;17.82;17.40;15.17;9.76;0.97
18724;SPS30;66230;52.130;5.584;2023-01-15T02:44:01;6.15;5.36;3.82;1.86;15.01;14.95;14.58;12.64;7.99;1.00
18724;SPS30;66230;52.130;5.584;2023-01-15T02:46:30;6.69;5.82;4.13;1.98;16.02;15.95;15.55;13.41;8.38;1.01
18724;SPS30;66230;52.130;5.584;2023-01-15T02:48:59;6.71;5.85;4.19;2.06;16.59;16.51;16.12;14.01;8.93;1.00
18724;SPS30;66230;52.130;5.584;2023-01-15T02:51:30;6.49;5.66;4.03;1.96;15.79;15.72;15.33;13.27;8.37;1.00
18724;SPS30;66230;52.130;5.584;2023-01-15T02:54:01;6.80;5.91;4.17;1.97;15.91;15.83;15.42;13.23;8.13;1.02
18724;SPS30;66230;52.130;5.584;2023-01-15T02:56:32;6.54;5.71;4.11;2.06;16.58;16.51;16.13;14.10;9.13;0.98
18724;SPS30;66230;52.130;5.584;2023-01-15T02:59:03;5.59;4.88;3.50;1.72;13.91;13.85;13.52;11.76;7.53;1.00
18724;SPS30;66230;52.130;5.584;2023-01-15T03:01:33;5.53;4.85;3.52;1.81;14.61;14.55;14.23;12.55;8.32;0.96
18724;SPS30;66230;52.130;5.584;2023-01-15T03:04:05;6.30;5.52;3.99;2.04;16.42;16.36;16.00;14.06;9.26;0.98
18724;SPS30;66230;52.130;5.584;2023-01-15T03:06:36;6.65;5.80;4.15;2.03;16.42;16.35;15.95;13.86;8.83;1.01
18724;SPS30;66230;52.130;5.584;2023-01-15T03:09:06;6.74;5.86;4.13;1.95;15.72;15.65;15.24;13.07;8.01;1.04
18724;SPS30;66230;52.130;5.584;2023-01-15T03:11:36;6.53;5.67;4.00;1.87;15.11;15.03;14.64;12.52;7.62;1.04
18724;SPS30;66230;52.130;5.584;2023-01-15T03:14:07;7.74;6.72;4.73;2.20;17.80;17.71;17.24;14.73;8.93;1.04
18724;SPS30;66230;52.130;5.584;2023-01-15T03:16:41;6.81;5.91;4.14;1.91;15.44;15.36;14.94;12.72;7.63;1.04
18724;SPS30;66230;52.130;5.584;2023-01-15T03:19:12;6.78;5.90;4.18;2.00;16.13;16.06;15.65;13.48;8.38;0.99
18724;SPS30;66230;52.130;5.584;2023-01-15T03:21:45;6.28;5.47;3.88;1.85;14.94;14.87;14.49;12.48;7.75;0.99
18724;SPS30;66230;52.130;5.584;2023-01-15T03:24:17;6.69;5.81;4.08;1.90;15.32;15.25;14.84;12.66;7.65;1.02
18724;SPS30;66230;52.130;5.584;2023-01-15T03:26:47;6.90;6.00;4.24;2.00;16.15;16.08;15.66;13.44;8.26;1.02
18724;SPS30;66230;52.130;5.584;2023-01-15T03:29:15;6.76;5.88;4.15;1.95;15.75;15.67;15.26;13.08;8.00;1.03
18724;SPS30;66230;52.130;5.584;2023-01-15T03:31:42;5.79;5.04;3.57;1.70;13.74;13.68;13.33;11.48;7.12;1.02
18724;SPS30;66230;52.130;5.584;2023-01-15T03:34:09;7.04;6.15;4.41;2.18;17.59;17.51;17.10;14.89;9.55;0.99
18724;SPS30;66230;52.130;5.584;2023-01-15T03:36:36;6.00;5.24;3.77;1.89;15.24;15.18;14.83;12.97;8.41;0.98
18724;SPS30;66230;52.130;5.584;2023-01-15T03:39:03;5.83;5.10;3.68;1.85;14.93;14.87;14.53;12.72;8.29;0.98
18724;SPS30;66230;52.130;5.584;2023-01-15T03:41:34;6.22;5.43;3.88;1.91;15.40;15.33;14.96;13.01;8.30;1.00
18724;SPS30;66230;52.130;5.584;2023-01-15T03:44:10;6.10;5.32;3.78;1.83;14.78;14.71;14.34;12.41;7.80;1.01
18724;SPS30;66230;52.130;5.584;2023-01-15T03:46:48;6.42;5.60;3.99;1.94;15.66;15.59;15.21;13.18;8.33;1.01
18724;SPS30;66230;52.130;5.584;2023-01-15T03:49:20;6.30;5.50;3.94;1.95;15.74;15.68;15.31;13.33;8.56;1.00
18724;SPS30;66230;52.130;5.584;2023-01-15T03:51:55;6.22;5.44;3.91;1.96;15.83;15.76;15.40;13.47;8.74;0.98
18724;SPS30;66230;52.130;5.584;2023-01-15T03:54:29;6.29;5.51;3.99;2.04;16.47;16.41;16.05;14.12;9.32;0.96
18724;SPS30;66230;52.130;5.584;2023-01-15T03:57:00;5.71;4.99;3.58;1.78;14.33;14.27;13.93;12.15;7.82;0.99
18724;SPS30;66230;52.130;5.584;2023-01-15T03:59:32;6.11;5.33;3.82;1.89;15.22;15.15;14.79;12.88;8.25;1.01
18724;SPS30;66230;52.130;5.584;2023-01-15T04:02:02;6.73;5.86;4.16;2.00;16.15;16.08;15.68;13.53;8.46;1.02
18724;SPS30;66230;52.130;5.584;2023-01-15T04:04:32;6.24;5.42;3.83;1.80;14.55;14.48;14.10;12.09;7.41;1.04
18724;SPS30;66230;52.130;5.584;2023-01-15T04:06:59;6.49;5.66;4.03;1.95;15.72;15.65;15.26;13.20;8.30;1.02
18724;SPS30;66230;52.130;5.584;2023-01-15T04:09:28;6.24;5.44;3.87;1.87;15.12;15.05;14.68;12.70;7.99;1.01
18724;SPS30;66230;52.130;5.584;2023-01-15T04:11:57;6.19;5.39;3.84;1.87;15.07;15.00;14.63;12.67;8.00;1.00
18724;SPS30;66230;52.130;5.584;2023-01-15T04:14:23;5.97;5.19;3.68;1.75;14.14;14.08;13.72;11.80;7.31;1.01
18724;SPS30;66230;52.130;5.584;2023-01-15T04:16:50;5.78;5.04;3.58;1.73;13.98;13.92;13.57;11.73;7.37;1.00
18724;SPS30;66230;52.130;5.584;2023-01-15T04:19:19;7.33;6.40;4.58;2.25;18.16;18.08;17.65;15.35;9.79;1.00
18724;SPS30;66230;52.130;5.584;2023-01-15T04:21:46;6.40;5.57;3.96;1.90;15.31;15.24;14.86;12.82;7.99;1.01
18724;SPS30;66230;52.130;5.584;2023-01-15T04:24:12;6.01;5.23;3.71;1.77;14.28;14.21;13.85;11.92;7.40;1.00
18724;SPS30;66230;52.130;5.584;2023-01-15T04:26:39;5.78;5.04;3.59;1.74;14.03;13.97;13.62;11.79;7.43;1.00
18724;SPS30;66230;52.130;5.584;2023-01-15T04:29:05;6.28;5.46;3.84;1.80;14.53;14.46;14.08;12.04;7.33;1.02
18724;SPS30;66230;52.130;5.584;2023-01-15T04:31:32;6.33;5.53;3.96;1.96;15.82;15.75;15.38;13.40;8.60;0.98
18724;SPS30;66230;52.130;5.584;2023-01-15T04:34:00;5.99;5.24;3.78;1.90;15.32;15.26;14.91;13.05;8.50;0.96
18724;SPS30;66230;52.130;5.584;2023-01-15T04:36:28;5.59;4.89;3.52;1.77;14.28;14.22;13.89;12.16;7.91;0.97
18724;SPS30;66230;52.130;5.584;2023-01-15T04:38:55;5.91;5.16;3.70;1.84;14.85;14.78;14.44;12.59;8.11;0.99
18724;SPS30;66230;52.130;5.584;2023-01-15T04:41:24;7.20;6.26;4.41;2.08;16.77;16.69;16.25;13.93;8.53;1.03
18724;SPS30;66230;52.130;5.584;2023-01-15T04:44:08;6.33;5.50;3.87;1.81;14.65;14.58;14.19;12.14;7.39;1.04
18724;SPS30;66230;52.130;5.584;2023-01-15T04:46:35;5.68;4.95;3.53;1.73;13.93;13.87;13.54;11.75;7.45;1.00
18724;SPS30;66230;52.130;5.584;2023-01-15T04:49:02;6.37;5.54;3.91;1.85;14.92;14.85;14.46;12.41;7.62;1.03
18724;SPS30;66230;52.130;5.584;2023-01-15T04:51:31;6.19;5.39;3.82;1.83;14.77;14.71;14.33;12.36;7.69;1.01
18724;SPS30;66230;52.130;5.584;2023-01-15T04:53:57;5.36;4.66;3.30;1.57;12.67;12.61;12.29;10.57;6.54;1.02
18724;SPS30;66230;52.130;5.584;2023-01-15T04:56:25;6.93;6.01;4.21;1.92;15.52;15.44;15.01;12.74;7.56;1.05
18724;SPS30;66230;52.130;5.584;2023-01-15T04:58:52;6.65;5.75;4.00;1.78;14.42;14.35;13.93;11.72;6.78;1.05
18724;SPS30;66230;52.130;5.584;2023-01-15T05:01:19;6.00;5.20;3.65;1.69;13.65;13.58;13.21;11.26;6.77;1.01
18724;SPS30;66230;52.130;5.584;2023-01-15T05:03:45;5.74;5.00;3.56;1.72;13.91;13.84;13.50;11.68;7.35;0.98
18724;SPS30;66230;52.130;5.584;2023-01-15T05:06:12;6.61;5.75;4.07;1.93;15.55;15.48;15.08;12.95;7.98;1.01
18724;SPS30;66230;52.130;5.584;2023-01-15T05:08:40;6.23;5.41;3.79;1.74;14.09;14.02;13.64;11.61;6.94;1.02
18724;SPS30;66230;52.130;5.584;2023-01-15T05:11:07;6.62;5.75;4.04;1.88;15.17;15.10;14.69;12.54;7.58;1.01
18724;SPS30;66230;52.130;5.584;2023-01-15T05:13:34;6.95;6.04;4.26;2.00;16.20;16.12;15.70;13.46;8.24;1.01
18724;SPS30;66230;52.130;5.584;2023-01-15T05:16:11;7.76;6.73;4.72;2.17;17.57;17.48;17.00;14.47;8.67;1.04
18724;SPS30;66230;52.130;5.584;2023-01-15T05:18:38;5.77;5.02;3.55;1.68;13.56;13.50;13.15;11.30;6.96;1.03
18724;SPS30;66230;52.130;5.584;2023-01-15T05:21:06;6.04;5.26;3.75;1.83;14.77;14.70;14.34;12.44;7.88;0.99
18724;SPS30;66230;52.130;5.584;2023-01-15T05:23:38;6.37;5.59;4.06;2.10;16.93;16.86;16.50;14.56;9.69;0.95
18724;SPS30;66230;52.130;5.584;2023-01-15T05:26:06;5.65;4.97;3.65;1.94;15.64;15.58;15.27;13.59;9.24;0.93
18724;SPS30;66230;52.130;5.584;2023-01-15T05:28:33;5.91;5.19;3.80;2.00;16.15;16.09;15.76;13.99;9.45;0.94
18724;SPS30;66230;52.130;5.584;2023-01-15T05:31:17;5.46;4.79;3.46;1.77;14.25;14.19;13.88;12.21;8.04;0.97
18724;SPS30;66230;52.130;5.584;2023-01-15T05:34:07;6.16;5.35;3.77;1.77;14.31;14.24;13.86;11.88;7.26;1.02
18724;SPS30;66230;52.130;5.584;2023-01-15T05:36:59;6.37;5.55;3.97;1.95;15.74;15.67;15.29;13.29;8.47;0.98
18724;SPS30;66230;52.130;5.584;2023-01-15T05:39:45;6.23;5.47;3.97;2.06;16.59;16.53;16.17;14.28;9.51;0.95
18724;SPS30;66230;52.130;5.584;2023-01-15T05:42:44;6.33;5.55;4.04;2.10;16.90;16.83;16.47;14.55;9.71;0.95
18724;SPS30;66230;52.130;5.584;2023-01-15T05:45:21;6.43;5.63;4.06;2.05;16.54;16.47;16.09;14.11;9.21;0.96
18724;SPS30;66230;52.130;5.584;2023-01-15T05:47:48;5.62;4.94;3.62;1.92;15.44;15.38;15.06;13.38;9.06;0.93
18724;SPS30;66230;52.130;5.584;2023-01-15T05:50:15;5.23;4.61;3.40;1.84;14.79;14.74;14.45;12.92;8.88;0.92
18724;SPS30;66230;52.130;5.584;2023-01-15T05:52:42;5.96;5.23;3.81;1.99;16.02;15.96;15.62;13.82;9.25;0.95
18724;SPS30;66230;52.130;5.584;2023-01-15T05:55:08;5.63;4.95;3.63;1.93;15.52;15.46;15.15;13.47;9.14;0.94
18724;SPS30;66230;52.130;5.584;2023-01-15T05:57:35;5.58;4.90;3.58;1.87;15.09;15.04;14.72;13.04;8.76;0.96
18724;SPS30;66230;52.130;5.584;2023-01-15T06:00:12;5.50;4.84;3.55;1.88;15.15;15.09;14.79;13.15;8.92;0.95
18724;SPS30;66230;52.130;5.584;2023-01-15T06:03:04;6.42;5.63;4.09;2.11;16.98;16.91;16.54;14.59;9.68;0.97
18724;SPS30;66230;52.130;5.584;2023-01-15T06:05:50;5.93;5.22;3.82;2.02;16.27;16.21;15.87;14.10;9.54;0.94
18724;SPS30;66230;52.130;5.584;2023-01-15T06:08:37;6.21;5.46;3.99;2.10;16.93;16.87;16.52;14.65;9.88;0.93
18724;SPS30;66230;52.130;5.584;2023-01-15T06:14:32;6.28;5.50;3.99;2.04;16.47;16.40;16.04;14.12;9.33;0.96
18724;SPS30;66230;52.130;5.584;2023-01-15T06:17:00;5.53;4.87;3.57;1.90;15.31;15.25;14.94;13.30;9.04;0.92
18724;SPS30;66230;52.130;5.584;2023-01-15T06:19:27;6.63;5.78;4.13;2.02;16.33;16.25;15.86;13.77;8.76;0.99
18724;SPS30;66230;52.130;5.584;2023-01-15T06:21:54;6.50;5.65;4.00;1.89;15.27;15.20;14.81;12.72;7.83;1.01
18724;SPS30;66230;52.130;5.584;2023-01-15T06:24:21;6.28;5.47;3.90;1.90;15.32;15.25;14.88;12.90;8.16;0.99
18724;SPS30;66230;52.130;5.584;2023-01-15T06:26:48;6.27;5.44;3.83;1.79;14.47;14.40;14.02;11.99;7.29;1.02
18724;SPS30;66230;52.130;5.584;2023-01-15T06:29:14;5.20;4.53;3.22;1.55;12.50;12.45;12.14;10.48;6.56;1.01
18724;SPS30;66230;52.130;5.584;2023-01-15T06:31:43;5.09;4.45;3.21;1.62;13.08;13.02;12.73;11.16;7.28;0.97
18724;SPS30;66230;52.130;5.584;2023-01-15T06:34:11;4.98;4.36;3.16;1.61;13.00;12.95;12.66;11.14;7.34;0.96
18724;SPS30;66230;52.130;5.584;2023-01-15T06:36:38;4.50;3.94;2.84;1.42;11.49;11.44;11.18;9.79;6.36;0.97
18724;SPS30;66230;52.130;5.584;2023-01-15T06:39:05;4.53;3.96;2.85;1.42;11.49;11.45;11.18;9.77;6.33;0.97
18724;SPS30;66230;52.130;5.584;2023-01-15T06:41:31;4.99;4.37;3.15;1.60;12.89;12.84;12.55;11.01;7.21;0.97
18724;SPS30;66230;52.130;5.584;2023-01-15T06:44:16;4.19;3.67;2.65;1.33;10.77;10.72;10.48;9.19;5.99;0.97
18724;SPS30;66230;52.130;5.584;2023-01-15T06:47:01;3.91;3.43;2.49;1.28;10.34;10.30;10.08;8.89;5.90;0.96
18724;SPS30;66230;52.130;5.584;2023-01-15T06:49:48;4.77;4.18;3.04;1.57;12.66;12.61;12.34;10.89;7.24;0.96
18724;SPS30;66230;52.130;5.584;2023-01-15T06:52:15;4.96;4.34;3.13;1.59;12.81;12.76;12.47;10.95;7.17;0.98
18724;SPS30;66230;52.130;5.584;2023-01-15T06:54:42;4.90;4.30;3.11;1.60;12.87;12.82;12.54;11.04;7.30;0.96
18724;SPS30;66230;52.130;5.584;2023-01-15T06:57:09;4.51;3.97;2.91;1.54;12.42;12.37;12.12;10.77;7.30;0.96
18724;SPS30;66230;52.130;5.584;2023-01-15T06:59:36;4.88;4.30;3.15;1.67;13.48;13.43;13.15;11.70;7.94;0.96
18724;SPS30;66230;52.130;5.584;2023-01-15T07:02:02;5.53;4.87;3.59;1.92;15.50;15.44;15.13;13.50;9.23;0.95
18724;SPS30;66230;52.130;5.584;2023-01-15T07:04:29;6.00;5.27;3.84;1.99;16.07;16.00;15.66;13.85;9.25;0.96
18724;SPS30;66230;52.130;5.584;2023-01-15T07:06:57;6.12;5.35;3.86;1.94;15.67;15.60;15.24;13.35;8.70;0.99
18724;SPS30;66230;52.130;5.584;2023-01-15T07:09:24;5.56;4.88;3.54;1.83;14.73;14.67;14.35;12.66;8.41;0.96
18724;SPS30;66230;52.130;5.584;2023-01-15T07:11:50;5.87;5.15;3.74;1.93;15.55;15.49;15.15;13.36;8.87;0.97
18724;SPS30;66230;52.130;5.584;2023-01-15T07:14:18;6.00;5.26;3.83;1.99;16.01;15.95;15.60;13.79;9.20;0.97
18724;SPS30;66230;52.130;5.584;2023-01-15T07:16:45;5.50;4.82;3.50;1.80;14.49;14.44;14.12;12.44;8.25;0.98
18724;SPS30;66230;52.130;5.584;2023-01-15T07:19:11;4.73;4.13;2.96;1.47;11.85;11.80;11.52;10.04;6.46;1.00
18724;SPS30;66230;52.130;5.584;2023-01-15T07:21:38;5.91;5.16;3.69;1.81;14.63;14.57;14.22;12.36;7.88;1.01
18724;SPS30;66230;52.130;5.584;2023-01-15T07:24:06;5.92;5.18;3.71;1.85;14.89;14.83;14.48;12.63;8.14;0.99
18724;SPS30;66230;52.130;5.584;2023-01-15T07:26:35;7.22;6.49;5.06;3.16;25.35;25.29;24.94;23.10;17.31;0.80
18724;SPS30;66230;52.130;5.584;2023-01-15T07:29:02;4.63;4.25;3.53;2.51;20.14;20.11;19.93;18.98;15.10;0.72
18724;SPS30;66230;52.130;5.584;2023-01-15T07:31:29;4.41;4.11;3.53;2.68;21.43;21.41;21.26;20.48;16.69;0.67
18724;SPS30;66230;52.130;5.584;2023-01-15T07:33:56;6.64;6.23;5.44;4.23;33.89;33.85;33.66;32.57;26.79;0.65
18724;SPS30;66230;52.130;5.584;2023-01-15T07:36:23;9.54;9.37;9.04;8.17;65.29;65.27;65.17;64.57;55.52;0.50
18724;SPS30;66230;52.130;5.584;2023-01-15T07:38:50;5.54;5.49;5.39;4.98;39.79;39.78;39.74;39.50;34.17;0.49
18724;SPS30;66230;52.130;5.584;2023-01-15T07:41:18;4.35;4.22;3.96;3.45;27.61;27.59;27.53;27.12;23.09;0.54
18724;SPS30;66230;52.130;5.584;2023-01-15T07:44:02;5.23;5.09;4.80;4.21;33.68;33.66;33.58;33.13;28.26;0.54
18724;SPS30;66230;52.130;5.584;2023-01-15T07:46:46;4.36;4.26;4.06;3.62;28.90;28.88;28.83;28.50;24.41;0.53
18724;SPS30;66230;52.130;5.584;2023-01-15T07:49:30;3.34;3.18;2.88;2.38;19.04;19.02;18.95;18.52;15.52;0.60
18724;SPS30;66230;52.130;5.584;2023-01-15T07:52:13;4.66;4.31;3.63;2.65;21.26;21.23;21.06;20.15;16.20;0.69
18724;SPS30;66230;52.130;5.584;2023-01-15T07:54:40;5.93;5.51;4.69;3.51;28.10;28.07;27.87;26.77;21.70;0.64
18724;SPS30;66230;52.130;5.584;2023-01-15T07:57:08;3.71;3.46;2.98;2.28;18.22;18.19;18.08;17.43;14.23;0.64
18724;SPS30;66230;52.130;5.584;2023-01-15T07:59:36;4.30;3.96;3.29;2.35;18.85;18.82;18.66;17.78;14.16;0.68
18724;SPS30;66230;52.130;5.584;2023-01-15T08:02:03;4.83;4.39;3.53;2.35;18.88;18.84;18.64;17.51;13.55;0.73
18724;SPS30;66230;52.130;5.584;2023-01-15T08:04:30;5.16;4.64;3.64;2.30;18.47;18.42;18.18;16.89;12.73;0.80
18724;SPS30;66230;52.130;5.584;2023-01-15T08:06:57;4.89;4.40;3.45;2.18;17.48;17.43;17.21;15.98;12.04;0.81
18724;SPS30;66230;52.130;5.584;2023-01-15T08:09:24;6.37;5.80;4.67;3.14;25.18;25.13;24.86;23.39;18.16;0.75
18724;SPS30;66230;52.130;5.584;2023-01-15T08:11:51;5.84;5.41;4.56;3.34;26.74;26.70;26.49;25.36;20.40;0.68
18724;SPS30;66230;52.130;5.584;2023-01-15T08:14:36;4.25;3.97;3.41;2.60;20.81;20.78;20.64;19.90;16.23;0.67
18724;SPS30;66230;52.130;5.584;2023-01-15T08:17:20;3.97;3.69;3.16;2.38;19.03;19.00;18.87;18.15;14.75;0.68
18724;SPS30;66230;52.130;5.584;2023-01-15T08:19:46;5.33;4.96;4.24;3.18;25.50;25.46;25.28;24.31;19.74;0.68
18724;SPS30;66230;52.130;5.584;2023-01-15T08:22:13;4.93;4.59;3.94;2.99;23.93;23.90;23.74;22.86;18.62;0.69
18724;SPS30;66230;52.130;5.584;2023-01-15T08:24:40;4.75;4.39;3.68;2.67;21.43;21.40;21.23;20.29;16.27;0.71
18724;SPS30;66230;52.130;5.584;2023-01-15T08:27:06;5.29;4.88;4.08;2.94;23.53;23.49;23.30;22.23;17.77;0.71
18724;SPS30;66230;52.130;5.584;2023-01-15T08:29:33;5.28;4.92;4.20;3.15;25.22;25.18;25.01;24.04;19.51;0.68
18724;SPS30;66230;52.130;5.584;2023-01-15T08:32:01;4.28;3.98;3.40;2.55;20.45;20.42;20.28;19.50;15.83;0.69
18724;SPS30;66230;52.130;5.584;2023-01-15T08:34:28;4.28;3.96;3.33;2.44;19.52;19.49;19.34;18.51;14.88;0.71
18724;SPS30;66230;52.130;5.584;2023-01-15T08:36:55;7.71;7.21;6.23;4.78;38.28;38.23;37.99;36.67;29.99;0.68
18724;SPS30;66230;52.130;5.584;2023-01-15T08:39:24;8.41;8.13;7.60;6.57;52.54;52.51;52.37;51.55;43.80;0.61
18724;SPS30;66230;52.130;5.584;2023-01-15T08:41:51;7.29;7.13;6.80;6.06;48.45;48.43;48.34;47.80;40.95;0.59
18724;SPS30;66230;52.130;5.584;2023-01-15T08:44:18;4.72;4.58;4.29;3.73;29.77;29.76;29.68;29.23;24.87;0.60
18724;SPS30;66230;52.130;5.584;2023-01-15T08:46:46;6.73;6.48;5.99;5.11;40.83;40.81;40.68;39.95;33.80;0.59
18724;SPS30;66230;52.130;5.584;2023-01-15T08:49:14;6.96;6.80;6.49;5.79;46.25;46.22;46.14;45.62;39.08;0.54
18724;SPS30;66230;52.130;5.584;2023-01-15T08:51:40;5.43;5.28;5.01;4.42;35.32;35.31;35.23;34.78;29.72;0.55
18724;SPS30;66230;52.130;5.584;2023-01-15T08:54:08;4.22;4.05;3.72;3.14;25.13;25.11;25.02;24.54;20.70;0.60
18724;SPS30;66230;52.130;5.584;2023-01-15T08:56:34;4.88;4.60;4.05;3.20;25.64;25.61;25.48;24.72;20.43;0.65
18724;SPS30;66230;52.130;5.584;2023-01-15T08:59:03;5.25;4.94;4.35;3.44;27.49;27.47;27.32;26.50;21.89;0.65
18724;SPS30;66230;52.130;5.584;2023-01-15T09:01:30;3.92;3.70;3.27;2.59;20.75;20.72;20.62;20.02;16.57;0.64
18724;SPS30;66230;52.130;5.584;2023-01-15T09:03:57;4.48;4.18;3.60;2.74;21.94;21.91;21.77;20.98;17.11;0.67
18724;SPS30;66230;52.130;5.584;2023-01-15T09:06:25;3.83;3.54;2.97;2.17;17.35;17.33;17.19;16.44;13.20;0.71
18724;SPS30;66230;52.130;5.584;2023-01-15T09:08:52;3.87;3.52;2.84;1.90;15.28;15.24;15.08;14.19;11.02;0.77
18724;SPS30;66230;52.130;5.584;2023-01-15T09:11:18;5.05;4.59;3.70;2.48;19.90;19.85;19.64;18.48;14.33;0.76
18724;SPS30;66230;52.130;5.584;2023-01-15T09:13:45;4.30;3.89;3.08;2.00;16.02;15.99;15.79;14.75;11.26;0.79
18724;SPS30;66230;52.130;5.584;2023-01-15T09:16:14;5.24;4.69;3.62;2.21;17.74;17.69;17.44;16.06;11.89;0.82
18724;SPS30;66230;52.130;5.584;2023-01-15T09:18:41;4.81;4.31;3.32;2.01;16.12;16.08;15.84;14.57;10.75;0.83
18724;SPS30;66230;52.130;5.584;2023-01-15T09:21:08;4.81;4.32;3.36;2.08;16.69;16.65;16.42;15.18;11.32;0.81
18724;SPS30;66230;52.130;5.584;2023-01-15T09:23:37;4.86;4.37;3.42;2.14;17.22;17.18;16.95;15.72;11.81;0.81
18724;SPS30;66230;52.130;5.584;2023-01-15T09:26:04;5.53;4.97;3.86;2.39;19.20;19.15;18.88;17.46;13.03;0.82
18724;SPS30;66230;52.130;5.584;2023-01-15T09:28:34;5.82;5.28;4.22;2.78;22.33;22.28;22.02;20.65;15.90;0.76
18724;SPS30;66230;52.130;5.584;2023-01-15T09:31:02;4.56;4.12;3.25;2.09;16.74;16.70;16.49;15.37;11.68;0.78
18724;SPS30;66230;52.130;5.584;2023-01-15T09:33:29;5.05;4.51;3.46;2.08;16.71;16.66;16.41;15.06;11.05;0.84
18724;SPS30;66230;52.130;5.584;2023-01-15T09:35:56;4.61;4.10;3.11;1.80;14.50;14.45;14.22;12.94;9.31;0.87